createdAt,value
2023-05-22T00:00:38.292Z,50.867355
2023-05-22T00:01:39.134Z,50.867252
2023-05-22T00:02:38.416Z,50.867157
2023-05-22T00:03:38.175Z,50.867031
2023-05-22T00:04:38.132Z,50.866837
2023-05-22T00:05:38.122Z,50.866894
2023-05-22T00:06:38.111Z,50.867401
2023-05-22T00:07:38.100Z,50.867645
2023-05-22T00:08:38.085Z,50.867561
2023-05-22T00:09:38.085Z,50.867268
2023-05-22T00:10:38.294Z,50.867043
2023-05-22T00:11:38.081Z,50.866978
2023-05-22T00:12:38.139Z,50.866985
2023-05-22T00:13:38.623Z,50.866951
2023-05-22T00:14:38.043Z,50.866982
2023-05-22T00:15:39.021Z,50.866936
2023-05-22T00:16:38.074Z,50.866852
2023-05-22T00:17:38.080Z,50.866974
2023-05-22T00:18:38.017Z,50.867149
2023-05-22T00:19:38.066Z,50.867161
2023-05-22T00:30:39.910Z,50.866852
2023-05-22T00:31:39.710Z,50.866566
2023-05-22T00:32:39.708Z,50.866798
2023-05-22T00:33:39.701Z,50.866817
2023-05-22T00:34:39.765Z,50.866783
2023-05-22T00:35:39.660Z,50.866669
2023-05-22T00:36:40.319Z,50.866886
2023-05-22T00:37:39.662Z,50.866577
2023-05-22T00:38:39.652Z,50.866722
2023-05-22T00:39:41.368Z,50.866688
2023-05-22T00:40:40.473Z,50.866638
2023-05-22T00:41:39.645Z,50.866695
2023-05-22T00:42:39.605Z,50.866661
2023-05-22T00:43:39.636Z,50.866604
2023-05-22T00:44:39.595Z,50.866657
2023-05-22T00:45:39.592Z,50.866638
2023-05-22T00:46:39.601Z,50.866642
2023-05-22T00:47:39.620Z,50.866688
2023-05-22T00:48:39.586Z,50.866669
2023-05-22T00:49:39.570Z,50.866653
2023-05-22T00:50:39.708Z,50.866718
2023-05-22T00:51:39.547Z,50.866661
2023-05-22T00:52:39.534Z,50.866661
2023-05-22T00:53:39.532Z,50.866650
2023-05-22T00:54:39.563Z,50.866676
2023-05-22T00:55:39.890Z,50.866703
2023-05-22T00:56:39.534Z,50.866680
2023-05-22T00:57:39.489Z,50.866722
2023-05-22T00:58:39.478Z,50.866676
2023-05-22T00:59:39.502Z,50.866734
2023-05-22T01:00:39.669Z,50.866772
2023-05-22T01:01:39.492Z,50.866749
2023-05-22T01:02:39.500Z,50.866749
2023-05-22T01:03:39.553Z,50.866772
2023-05-22T01:04:40.350Z,50.866714
2023-05-22T01:05:39.444Z,50.866737
2023-05-22T01:06:39.420Z,50.866653
2023-05-22T01:07:39.429Z,50.866802
2023-05-22T01:08:39.417Z,50.866722
2023-05-22T01:09:39.417Z,50.866692
2023-05-22T01:10:39.589Z,50.866756
2023-05-22T01:11:39.438Z,50.866791
2023-05-22T01:12:39.368Z,50.866749
2023-05-22T01:13:39.375Z,50.866722
2023-05-22T01:14:39.343Z,50.866703
2023-05-22T01:15:39.373Z,50.866783
2023-05-22T01:16:39.504Z,50.866707
2023-05-22T01:17:39.349Z,50.866741
2023-05-22T01:18:39.321Z,50.866714
2023-05-22T01:19:40.323Z,50.866634
2023-05-22T01:20:39.380Z,50.866753
2023-05-22T01:21:39.315Z,50.866714
2023-05-22T01:22:40.256Z,50.866791
2023-05-22T01:23:39.336Z,50.866802
2023-05-22T01:24:39.314Z,50.866833
2023-05-22T01:25:39.270Z,50.866821
2023-05-22T01:26:39.272Z,50.866791
2023-05-22T01:27:39.295Z,50.866695
2023-05-22T01:28:39.264Z,50.866711
2023-05-22T01:29:39.259Z,50.866776
2023-05-22T01:30:39.443Z,50.866768
2023-05-22T01:31:39.228Z,50.866730
2023-05-22T01:32:39.311Z,50.866699
2023-05-22T01:33:39.333Z,50.866776
2023-05-22T01:34:39.188Z,50.866741
2023-05-22T01:35:39.230Z,50.866692
2023-05-22T01:36:39.180Z,50.866737
2023-05-22T01:37:39.767Z,50.866741
2023-05-22T01:38:39.186Z,50.866703
2023-05-22T01:39:39.193Z,50.866646
2023-05-22T01:40:39.368Z,50.866642
2023-05-22T01:41:39.146Z,50.866722
2023-05-22T01:42:39.134Z,50.866764
2023-05-22T01:43:39.164Z,50.866810
2023-05-22T01:44:39.139Z,50.866802
2023-05-22T01:45:39.153Z,50.866760
2023-05-22T01:46:39.140Z,50.866776
2023-05-22T01:47:39.151Z,50.866753
2023-05-22T01:48:39.090Z,50.866783
2023-05-22T01:49:39.083Z,50.866783
2023-05-22T01:50:39.366Z,50.866783
2023-05-22T01:51:39.105Z,50.866722
2023-05-22T01:52:39.063Z,50.866741
2023-05-22T01:53:39.065Z,50.866768
2023-05-22T01:54:39.055Z,50.866749
2023-05-22T01:55:39.039Z,50.866737
2023-05-22T01:56:39.026Z,50.866737
2023-05-22T01:57:39.000Z,50.866722
2023-05-22T01:58:38.994Z,50.866711
2023-05-22T01:59:39.018Z,50.866684
2023-05-22T02:00:39.238Z,50.866707
2023-05-22T02:01:39.149Z,50.866688
2023-05-22T02:02:39.090Z,50.866730
2023-05-22T02:03:39.064Z,50.866726
2023-05-22T02:04:39.390Z,50.866714
2023-05-22T02:05:38.967Z,50.866730
2023-05-22T02:06:38.940Z,50.866749
2023-05-22T02:07:38.978Z,50.866760
2023-05-22T02:08:38.967Z,50.866722
2023-05-22T02:09:38.908Z,50.866741
2023-05-22T02:10:39.296Z,50.866737
2023-05-22T02:11:38.897Z,50.866707
2023-05-22T02:12:38.908Z,50.866718
2023-05-22T02:13:38.890Z,50.866726
2023-05-22T02:14:38.881Z,50.866718
2023-05-22T02:15:38.976Z,50.866726
2023-05-22T02:16:38.863Z,50.866718
2023-05-22T02:17:38.904Z,50.866741
2023-05-22T02:18:38.841Z,50.866741
2023-05-22T02:19:38.828Z,50.866737
2023-05-22T02:20:39.011Z,50.866730
2023-05-22T02:21:38.798Z,50.866741
2023-05-22T02:22:39.381Z,50.866726
2023-05-22T02:23:38.789Z,50.866756
2023-05-22T02:24:38.789Z,50.866741
2023-05-22T02:25:38.807Z,50.866692
2023-05-22T02:26:38.789Z,50.866718
2023-05-22T02:27:38.766Z,50.866714
2023-05-22T02:28:38.767Z,50.866749
2023-05-22T02:29:38.781Z,50.866730
2023-05-22T02:30:39.046Z,50.866703
2023-05-22T02:31:38.794Z,50.866718
2023-05-22T02:32:38.820Z,50.866764
2023-05-22T02:33:38.735Z,50.866806
2023-05-22T02:34:38.740Z,50.866714
2023-05-22T02:35:38.737Z,50.866707
2023-05-22T02:36:38.721Z,50.866749
2023-05-22T02:37:38.715Z,50.866776
2023-05-22T02:38:38.677Z,50.866745
2023-05-22T02:39:38.696Z,50.866726
2023-05-22T02:40:38.827Z,50.866753
2023-05-22T02:41:38.654Z,50.866760
2023-05-22T02:42:38.654Z,50.866745
2023-05-22T02:43:38.655Z,50.866806
2023-05-22T02:44:38.634Z,50.866745
2023-05-22T02:45:38.617Z,50.866707
2023-05-22T02:46:38.664Z,50.866714
2023-05-22T02:47:38.639Z,50.866741
2023-05-22T02:48:38.619Z,50.866699
2023-05-22T02:49:38.593Z,50.866703
2023-05-22T02:50:38.754Z,50.866699
2023-05-22T02:51:38.568Z,50.866695
2023-05-22T02:52:38.568Z,50.866722
2023-05-22T02:53:38.578Z,50.866737
2023-05-22T02:54:38.569Z,50.866726
2023-05-22T02:55:38.585Z,50.866737
2023-05-22T02:56:38.531Z,50.866734
2023-05-22T02:57:38.526Z,50.866707
2023-05-22T02:58:38.530Z,50.866745
2023-05-22T02:59:38.519Z,50.866745
2023-05-22T03:00:38.703Z,50.866795
2023-05-22T03:01:38.699Z,50.866783
2023-05-22T03:02:38.573Z,50.866817
2023-05-22T03:03:38.661Z,50.866787
2023-05-22T03:04:38.489Z,50.866776
2023-05-22T03:05:38.489Z,50.866764
2023-05-22T03:06:38.656Z,50.866753
2023-05-22T03:07:38.456Z,50.866795
2023-05-22T03:08:38.436Z,50.866814
2023-05-22T03:09:38.451Z,50.866814
2023-05-22T03:10:38.682Z,50.866787
2023-05-22T03:11:39.411Z,50.866814
2023-05-22T03:12:38.421Z,50.866814
2023-05-22T03:13:38.388Z,50.866806
2023-05-22T03:14:38.411Z,50.866806
2023-05-22T03:15:38.384Z,50.866772
2023-05-22T03:16:38.366Z,50.866837
2023-05-22T03:17:38.426Z,50.866859
2023-05-22T03:18:38.348Z,50.866852
2023-05-22T03:19:38.395Z,50.866844
2023-05-22T03:20:38.601Z,50.866837
2023-05-22T03:21:38.315Z,50.866829
2023-05-22T03:22:38.397Z,50.866802
2023-05-22T03:23:38.320Z,50.866829
2023-05-22T03:24:38.368Z,50.866783
2023-05-22T03:25:38.320Z,50.866802
2023-05-22T03:26:38.314Z,50.866863
2023-05-22T03:27:38.874Z,50.866871
2023-05-22T03:28:38.299Z,50.866886
2023-05-22T03:29:38.390Z,50.866871
2023-05-22T03:30:38.506Z,50.866840
2023-05-22T03:31:38.297Z,50.866825
2023-05-22T03:32:38.300Z,50.866798
2023-05-22T03:33:38.277Z,50.866810
2023-05-22T03:34:38.265Z,50.866825
2023-05-22T03:35:38.254Z,50.866825
2023-05-22T03:36:38.225Z,50.866829
2023-05-22T03:37:38.232Z,50.866798
2023-05-22T03:38:38.199Z,50.866833
2023-05-22T03:39:38.193Z,50.866821
2023-05-22T03:40:38.517Z,50.866776
2023-05-22T03:41:38.171Z,50.866829
2023-05-22T03:42:38.174Z,50.866776
2023-05-22T03:43:38.178Z,50.866787
2023-05-22T03:44:38.162Z,50.866783
2023-05-22T03:45:38.219Z,50.866825
2023-05-22T03:46:38.152Z,50.866859
2023-05-22T03:47:38.835Z,50.866791
2023-05-22T03:48:38.124Z,50.866783
2023-05-22T03:49:38.118Z,50.866768
2023-05-22T03:50:38.412Z,50.866791
2023-05-22T03:51:38.111Z,50.866756
2023-05-22T03:52:38.111Z,50.866749
2023-05-22T03:53:38.079Z,50.866730
2023-05-22T03:54:38.093Z,50.866840
2023-05-22T03:55:38.056Z,50.866772
2023-05-22T03:56:38.077Z,50.866703
2023-05-22T03:57:38.394Z,50.866726
2023-05-22T03:58:38.054Z,50.866676
2023-05-22T03:59:38.053Z,50.866714
2023-05-22T04:00:38.257Z,50.866745
2023-05-22T04:01:38.011Z,50.866814
2023-05-22T04:02:38.053Z,50.866798
2023-05-22T04:03:38.881Z,50.866871
2023-05-22T04:04:38.037Z,50.866783
2023-05-22T04:05:38.001Z,50.866646
2023-05-22T04:06:37.960Z,50.866665
2023-05-22T04:07:38.003Z,50.866726
2023-05-22T04:08:38.023Z,50.866653
2023-05-22T04:09:37.931Z,50.866722
2023-05-22T04:10:38.096Z,50.866695
2023-05-22T04:11:37.923Z,50.866741
2023-05-22T04:12:37.937Z,50.866619
2023-05-22T04:13:37.936Z,50.866665
2023-05-22T04:14:37.924Z,50.866764
2023-05-22T04:15:38.035Z,50.866711
2023-05-22T04:16:37.884Z,50.866764
2023-05-22T04:17:37.909Z,50.866688
2023-05-22T04:18:37.880Z,50.866695
2023-05-22T04:19:37.838Z,50.866692
2023-05-22T04:20:38.127Z,50.866779
2023-05-22T04:21:37.830Z,50.866798
2023-05-22T04:22:37.839Z,50.866863
2023-05-22T04:23:37.815Z,50.866695
2023-05-22T04:24:37.815Z,50.866714
2023-05-22T04:25:38.080Z,50.866730
2023-05-22T04:26:38.266Z,50.866673
2023-05-22T04:27:37.955Z,50.866695
2023-05-22T04:28:38.412Z,50.866734
2023-05-22T04:29:37.780Z,50.866756
2023-05-22T04:30:38.259Z,50.866730
2023-05-22T04:31:37.778Z,50.866722
2023-05-22T04:32:37.784Z,50.866730
2023-05-22T04:33:37.753Z,50.866749
2023-05-22T04:34:37.753Z,50.866760
2023-05-22T04:35:38.128Z,50.866749
2023-05-22T04:36:37.724Z,50.866749
2023-05-22T04:37:37.717Z,50.866749
2023-05-22T04:38:37.705Z,50.866718
2023-05-22T04:39:37.717Z,50.866734
2023-05-22T04:40:38.667Z,50.866737
2023-05-22T04:41:37.681Z,50.866737
2023-05-22T04:42:37.662Z,50.866726
2023-05-22T04:43:37.667Z,50.866737
2023-05-22T04:44:37.697Z,50.866749
2023-05-22T04:45:37.653Z,50.866753
2023-05-22T04:46:37.718Z,50.866734
2023-05-22T04:47:37.670Z,50.866707
2023-05-22T04:48:37.630Z,50.866711
2023-05-22T04:49:37.639Z,50.866718
2023-05-22T04:50:37.996Z,50.866688
2023-05-22T04:51:37.589Z,50.866726
2023-05-22T04:52:37.614Z,50.866737
2023-05-22T04:53:38.312Z,50.866703
2023-05-22T04:54:37.584Z,50.866722
2023-05-22T04:55:37.562Z,50.866722
2023-05-22T04:56:37.650Z,50.866760
2023-05-22T04:57:37.551Z,50.866730
2023-05-22T04:58:37.545Z,50.866692
2023-05-22T04:59:37.539Z,50.866688
2023-05-22T05:00:37.771Z,50.866859
2023-05-22T05:01:37.767Z,50.867001
2023-05-22T05:02:37.521Z,50.866909
2023-05-22T05:03:37.541Z,50.866863
2023-05-22T05:04:37.541Z,50.866867
2023-05-22T05:05:37.497Z,50.866821
2023-05-22T05:06:37.480Z,50.866905
2023-05-22T05:07:37.490Z,50.866867
2023-05-22T05:08:37.483Z,50.866856
2023-05-22T05:09:37.477Z,50.866810
2023-05-22T05:10:37.804Z,50.866718
2023-05-22T05:11:37.485Z,50.866718
2023-05-22T05:12:38.342Z,50.866726
2023-05-22T05:13:37.431Z,50.866695
2023-05-22T05:14:37.431Z,50.866726
2023-05-22T05:15:37.417Z,50.866695
2023-05-22T05:16:37.549Z,50.866745
2023-05-22T05:17:37.426Z,50.866768
2023-05-22T05:18:37.406Z,50.866745
2023-05-22T05:19:37.450Z,50.866745
2023-05-22T05:20:37.511Z,50.866776
2023-05-22T05:21:37.385Z,50.866837
2023-05-22T05:22:37.403Z,50.866837
2023-05-22T05:23:37.351Z,50.866760
2023-05-22T05:24:37.337Z,50.866741
2023-05-22T05:25:37.342Z,50.866779
2023-05-22T05:26:37.316Z,50.866768
2023-05-22T05:27:37.315Z,50.866741
2023-05-22T05:28:37.306Z,50.866718
2023-05-22T05:29:37.285Z,50.866718
2023-05-22T05:30:37.493Z,50.866737
2023-05-22T05:31:37.330Z,50.866711
2023-05-22T05:32:38.934Z,50.866745
2023-05-22T05:33:37.285Z,50.866730
2023-05-22T05:34:37.243Z,50.866737
2023-05-22T05:35:37.266Z,50.866753
2023-05-22T05:36:37.236Z,50.866776
2023-05-22T05:37:37.274Z,50.866760
2023-05-22T05:38:37.250Z,50.866753
2023-05-22T05:39:37.234Z,50.866772
2023-05-22T05:40:37.448Z,50.866791
2023-05-22T05:41:37.190Z,50.866772
2023-05-22T05:42:37.222Z,50.866772
2023-05-22T05:43:37.941Z,50.866734
2023-05-22T05:44:37.223Z,50.866798
2023-05-22T05:45:37.195Z,50.866760
2023-05-22T05:46:37.290Z,50.866791
2023-05-22T05:47:37.247Z,50.866802
2023-05-22T05:48:37.150Z,50.866852
2023-05-22T05:49:37.151Z,50.866810
2023-05-22T05:50:38.464Z,50.866806
2023-05-22T05:51:37.127Z,50.866764
2023-05-22T05:52:37.859Z,50.866760
2023-05-22T05:53:37.966Z,50.866745
2023-05-22T05:54:37.151Z,50.866772
2023-05-22T05:55:37.100Z,50.866783
2023-05-22T05:56:37.088Z,50.866863
2023-05-22T05:57:38.072Z,50.866844
2023-05-22T05:58:37.956Z,50.866802
2023-05-22T05:59:37.082Z,50.866844
2023-05-22T06:00:37.564Z,50.866875
2023-05-22T06:01:37.060Z,50.866829
2023-05-22T06:02:37.145Z,50.866787
2023-05-22T06:03:37.997Z,50.866795
2023-05-22T06:04:37.038Z,50.866730
2023-05-22T06:05:37.104Z,50.866776
2023-05-22T06:06:37.028Z,50.866749
2023-05-22T06:07:37.029Z,50.866768
2023-05-22T06:08:37.019Z,50.866768
2023-05-22T06:09:36.999Z,50.866798
2023-05-22T06:10:37.185Z,50.866844
2023-05-22T06:11:36.979Z,50.866848
2023-05-22T06:12:36.961Z,50.866848
2023-05-22T06:13:36.959Z,50.866791
2023-05-22T06:14:36.958Z,50.866829
2023-05-22T06:15:37.004Z,50.866814
2023-05-22T06:16:37.063Z,50.866772
2023-05-22T06:17:37.006Z,50.866802
2023-05-22T06:18:36.937Z,50.866817
2023-05-22T06:19:37.104Z,50.866787
2023-05-22T06:20:37.256Z,50.866753
2023-05-22T06:21:36.908Z,50.866817
2023-05-22T06:22:36.944Z,50.866798
2023-05-22T06:23:37.504Z,50.866802
2023-05-22T06:24:36.871Z,50.866810
2023-05-22T06:25:36.860Z,50.866787
2023-05-22T06:26:36.852Z,50.866783
2023-05-22T06:27:36.853Z,50.866791
2023-05-22T06:28:36.823Z,50.866821
2023-05-22T06:29:36.883Z,50.866829
2023-05-22T06:30:40.015Z,50.866783
2023-05-22T06:31:38.371Z,50.866795
2023-05-22T06:32:36.945Z,50.866814
2023-05-22T06:33:36.846Z,50.866783
2023-05-22T06:34:36.788Z,50.866737
2023-05-22T06:35:36.795Z,50.866714
2023-05-22T06:36:36.805Z,50.866695
2023-05-22T06:37:37.489Z,50.866756
2023-05-22T06:38:36.818Z,50.866783
2023-05-22T06:39:36.777Z,50.866756
2023-05-22T06:40:36.809Z,50.866730
2023-05-22T06:41:36.751Z,50.866718
2023-05-22T06:42:36.749Z,50.866726
2023-05-22T06:43:36.731Z,50.866718
2023-05-22T06:44:36.725Z,50.866776
2023-05-22T06:45:36.720Z,50.866795
2023-05-22T06:46:36.777Z,50.866692
2023-05-22T06:47:36.785Z,50.866760
2023-05-22T06:48:36.730Z,50.866772
2023-05-22T06:49:37.493Z,50.866795
2023-05-22T06:50:36.763Z,50.866764
2023-05-22T06:51:36.690Z,50.866718
2023-05-22T06:52:36.779Z,50.866741
2023-05-22T06:53:37.450Z,50.866783
2023-05-22T06:54:36.660Z,50.866764
2023-05-22T06:55:36.649Z,50.866756
2023-05-22T06:56:36.658Z,50.866714
2023-05-22T06:57:36.631Z,50.866734
2023-05-22T06:58:36.609Z,50.866730
2023-05-22T06:59:36.615Z,50.866768
2023-05-22T07:00:36.658Z,50.866776
2023-05-22T07:01:36.651Z,50.866764
2023-05-22T07:02:36.661Z,50.866726
2023-05-22T07:03:36.565Z,50.866749
2023-05-22T07:04:38.529Z,50.866760
2023-05-22T07:05:36.676Z,50.866680
2023-05-22T07:06:36.558Z,50.866646
2023-05-22T07:07:36.554Z,50.866627
2023-05-22T07:08:36.548Z,50.866657
2023-05-22T07:09:36.560Z,50.866695
2023-05-22T07:10:36.559Z,50.866680
2023-05-22T07:11:36.550Z,50.866699
2023-05-22T07:12:36.513Z,50.866730
2023-05-22T07:13:36.533Z,50.866734
2023-05-22T07:14:36.507Z,50.866695
2023-05-22T07:15:36.487Z,50.866642
2023-05-22T07:16:36.477Z,50.866711
2023-05-22T07:17:36.502Z,50.866745
2023-05-22T07:18:36.472Z,50.866718
2023-05-22T07:19:36.605Z,50.866745
2023-05-22T07:20:36.454Z,50.866650
2023-05-22T07:21:36.449Z,50.866688
2023-05-22T07:22:37.443Z,50.866684
2023-05-22T07:23:36.461Z,50.866676
2023-05-22T07:24:36.495Z,50.866646
2023-05-22T07:25:36.400Z,50.866657
2023-05-22T07:26:36.436Z,50.866634
2023-05-22T07:27:36.390Z,50.866692
2023-05-22T07:28:36.399Z,50.866673
2023-05-22T07:29:36.376Z,50.866631
2023-05-22T07:30:36.401Z,50.866627
2023-05-22T07:31:36.370Z,50.866680
2023-05-22T07:32:36.417Z,50.866760
2023-05-22T07:33:36.490Z,50.866730
2023-05-22T07:34:36.326Z,50.866718
2023-05-22T07:35:36.331Z,50.866703
2023-05-22T07:36:36.897Z,50.866745
2023-05-22T07:37:36.315Z,50.866795
2023-05-22T07:38:36.298Z,50.866783
2023-05-22T07:39:36.298Z,50.866745
2023-05-22T07:40:36.566Z,50.866722
2023-05-22T07:41:36.293Z,50.866699
2023-05-22T07:42:36.273Z,50.866737
2023-05-22T07:43:37.030Z,50.866718
2023-05-22T07:44:36.303Z,50.866722
2023-05-22T07:45:36.256Z,50.866707
2023-05-22T07:46:36.331Z,50.866734
2023-05-22T07:47:36.245Z,50.866734
2023-05-22T07:48:36.248Z,50.866726
2023-05-22T07:49:36.226Z,50.866745
2023-05-22T07:50:36.252Z,50.866779
2023-05-22T07:51:36.221Z,50.866779
2023-05-22T07:52:36.203Z,50.866776
2023-05-22T07:53:36.208Z,50.866772
2023-05-22T07:54:36.186Z,50.866776
2023-05-22T07:55:36.184Z,50.866798
2023-05-22T07:56:36.256Z,50.866795
2023-05-22T07:57:36.177Z,50.866795
2023-05-22T07:58:36.136Z,50.866829
2023-05-22T07:59:36.141Z,50.866779
2023-05-22T08:00:36.995Z,50.866772
2023-05-22T08:01:36.117Z,50.866756
2023-05-22T08:02:36.276Z,50.866753
2023-05-22T08:03:36.150Z,50.866787
2023-05-22T08:04:36.334Z,50.866764
2023-05-22T08:05:36.490Z,50.866745
2023-05-22T08:06:36.147Z,50.866791
2023-05-22T08:07:36.085Z,50.866756
2023-05-22T08:08:36.087Z,50.866734
2023-05-22T08:09:36.060Z,50.866707
2023-05-22T08:10:47.086Z,50.866737
2023-05-22T08:11:39.815Z,50.866745
2023-05-22T08:12:36.032Z,50.866764
2023-05-22T08:13:36.062Z,50.866714
2023-05-22T08:14:36.247Z,50.866714
2023-05-22T08:15:36.026Z,50.866745
2023-05-22T08:17:08.458Z,50.866684
2023-05-22T08:17:36.017Z,50.866714
2023-05-22T08:18:36.996Z,50.866730
2023-05-22T21:25:48.933Z,50.866077
2023-05-22T21:26:47.851Z,50.866241
2023-05-22T21:27:47.156Z,50.866207
2023-05-22T21:28:47.181Z,50.866764
2023-05-22T21:29:47.199Z,50.866787
2023-05-22T21:30:47.132Z,50.866962
2023-05-22T21:31:47.155Z,50.867073
2023-05-22T21:32:47.188Z,50.867226
2023-05-22T21:33:47.135Z,50.866936
2023-05-22T21:34:47.108Z,50.866932
2023-05-22T21:35:47.092Z,50.866989
2023-05-22T21:36:48.030Z,50.867004
2023-05-22T21:37:47.878Z,50.867058
2023-05-22T21:38:47.988Z,50.867023
2023-05-22T21:39:47.085Z,50.866997
2023-05-22T21:40:47.057Z,50.866989
2023-05-22T21:41:49.288Z,50.867069
2023-05-22T21:42:48.867Z,50.867004
2023-05-22T21:43:47.046Z,50.867073
2023-05-22T21:44:47.042Z,50.867134
2023-05-22T21:45:47.013Z,50.867043
2023-05-22T21:46:48.063Z,50.867001
2023-05-22T21:47:47.113Z,50.867168
2023-05-22T21:48:47.002Z,50.867432
2023-05-22T21:49:46.981Z,50.867538
2023-05-22T21:50:46.981Z,50.867531
2023-05-22T21:51:46.973Z,50.867462
2023-05-22T21:52:47.062Z,50.867363
2023-05-22T21:53:46.964Z,50.867306
2023-05-22T21:54:46.974Z,50.867359
2023-05-22T21:55:46.939Z,50.867336
2023-05-22T21:56:46.954Z,50.867325
2023-05-22T21:57:46.922Z,50.867256
2023-05-22T21:58:47.870Z,50.867207
2023-05-22T21:59:46.975Z,50.866993
2023-05-22T22:00:46.915Z,50.866928
2023-05-22T22:01:46.911Z,50.866917
2023-05-22T22:02:46.954Z,50.866932
2023-05-22T22:03:47.021Z,50.866940
2023-05-22T22:04:46.865Z,50.866932
2023-05-22T22:05:46.873Z,50.866970
2023-05-22T22:06:46.893Z,50.866982
2023-05-22T22:07:46.861Z,50.866962
2023-05-22T22:08:46.944Z,50.866936
2023-05-22T22:09:46.824Z,50.866962
2023-05-22T22:10:46.825Z,50.866917
2023-05-22T22:11:46.822Z,50.866867
2023-05-22T22:12:46.809Z,50.866859
2023-05-22T22:13:46.812Z,50.866871
2023-05-22T22:14:46.806Z,50.866871
2023-05-22T22:15:46.775Z,50.866913
2023-05-22T22:16:46.939Z,50.866875
2023-05-22T22:17:46.771Z,50.866863
2023-05-22T22:18:46.758Z,50.866837
2023-05-22T22:19:46.770Z,50.866867
2023-05-22T22:20:47.070Z,50.866867
2023-05-22T22:21:46.750Z,50.866863
2023-05-22T22:22:46.735Z,50.866886
2023-05-22T22:23:46.729Z,50.866905
2023-05-22T22:24:48.235Z,50.866871
2023-05-22T22:25:47.696Z,50.866875
2023-05-22T22:26:47.409Z,50.866810
2023-05-22T22:27:46.697Z,50.866859
2023-05-22T22:28:46.681Z,50.866829
2023-05-22T22:29:46.664Z,50.866844
2023-05-22T22:30:46.702Z,50.866833
2023-05-22T22:31:46.696Z,50.866814
2023-05-22T22:32:48.804Z,50.866806
2023-05-22T22:33:47.669Z,50.866829
2023-05-22T22:34:46.641Z,50.866791
2023-05-22T22:35:46.619Z,50.866837
2023-05-22T22:36:46.630Z,50.866806
2023-05-22T22:37:46.600Z,50.866737
2023-05-22T22:38:46.597Z,50.866768
2023-05-22T22:39:47.474Z,50.866776
2023-05-22T22:40:46.696Z,50.866749
2023-05-22T22:41:46.594Z,50.866714
2023-05-22T22:42:46.594Z,50.866707
2023-05-22T22:43:46.575Z,50.866695
2023-05-22T22:44:46.559Z,50.866718
2023-05-22T22:45:46.597Z,50.866707
2023-05-22T22:46:46.542Z,50.866650
2023-05-22T22:47:46.561Z,50.866627
2023-05-22T22:48:46.555Z,50.866642
2023-05-22T22:49:46.531Z,50.866619
2023-05-22T22:50:46.504Z,50.866623
2023-05-22T22:51:46.513Z,50.866673
2023-05-22T22:52:46.505Z,50.866699
2023-05-22T22:53:46.494Z,50.866665
2023-05-22T22:54:46.494Z,50.866703
2023-05-22T22:55:46.473Z,50.866734
2023-05-22T22:56:46.554Z,50.866711
2023-05-22T22:57:47.469Z,50.866684
2023-05-22T22:58:46.437Z,50.866688
2023-05-22T22:59:47.456Z,50.866673
2023-05-22T23:00:46.429Z,50.866722
2023-05-22T23:01:46.428Z,50.866653
2023-05-22T23:02:46.450Z,50.866634
2023-05-22T23:03:46.400Z,50.866695
2023-05-22T23:04:46.551Z,50.866688
2023-05-22T23:05:46.545Z,50.866608
2023-05-22T23:06:46.396Z,50.866631
2023-05-22T23:07:46.378Z,50.866535
2023-05-22T23:08:46.369Z,50.866646
2023-05-22T23:09:46.373Z,50.866638
2023-05-22T23:10:46.349Z,50.866562
2023-05-22T23:11:46.351Z,50.866596
2023-05-22T23:12:46.434Z,50.866627
2023-05-22T23:13:46.356Z,50.866657
2023-05-22T23:14:46.324Z,50.866688
2023-05-22T23:15:46.340Z,50.866570
2023-05-22T23:16:46.309Z,50.866646
2023-05-22T23:17:49.090Z,50.866688
2023-05-22T23:18:46.339Z,50.866695
2023-05-22T23:19:46.310Z,50.866680
2023-05-22T23:20:46.311Z,50.866611
2023-05-22T23:21:46.262Z,50.866688
2023-05-22T23:22:46.262Z,50.866707
2023-05-22T23:23:46.269Z,50.866707
2023-05-22T23:24:46.243Z,50.866692
2023-05-22T23:25:46.241Z,50.866699
2023-05-22T23:26:46.222Z,50.866714
2023-05-22T23:27:46.228Z,50.866726
2023-05-22T23:28:46.318Z,50.866734
2023-05-22T23:29:46.211Z,50.866737
2023-05-22T23:30:46.202Z,50.866745
2023-05-22T23:31:46.984Z,50.866768
2023-05-22T23:32:46.225Z,50.866802
2023-05-22T23:33:46.172Z,50.866760
2023-05-22T23:34:46.174Z,50.866783
2023-05-22T23:35:46.182Z,50.866779
2023-05-22T23:36:46.182Z,50.866749
2023-05-22T23:37:46.145Z,50.866791
2023-05-22T23:38:46.137Z,50.866783
2023-05-22T23:39:46.134Z,50.866764
2023-05-22T23:40:46.140Z,50.866802
2023-05-22T23:41:46.978Z,50.866810
2023-05-22T23:42:46.103Z,50.866806
2023-05-22T23:43:46.102Z,50.866795
2023-05-22T23:44:46.194Z,50.866867
2023-05-22T23:45:46.082Z,50.866821
2023-05-22T23:46:46.147Z,50.866882
2023-05-22T23:47:46.106Z,50.866924
2023-05-22T23:48:46.056Z,50.866894
2023-05-22T23:49:46.057Z,50.866859
2023-05-22T23:50:46.036Z,50.866894
2023-05-22T23:51:46.030Z,50.866894
2023-05-22T23:52:46.030Z,50.866768
2023-05-22T23:53:46.010Z,50.866745
2023-05-22T23:54:46.006Z,50.866852
2023-05-22T23:55:45.998Z,50.866844
2023-05-22T23:56:45.977Z,50.867290
2023-05-22T23:57:45.980Z,50.867516
2023-05-22T23:58:45.966Z,50.867558
2023-05-22T23:59:45.969Z,50.867397
